sensor_id;sensor_type;location;lat;lon;timestamp;temperature;humidity
2955;DHT22;1487;51.470;6.938;2022-12-07T00:01:36;5.30;99.90
2955;DHT22;1487;51.470;6.938;2022-12-07T00:04:06;5.30;99.90
2955;DHT22;1487;51.470;6.938;2022-12-07T00:06:37;5.30;99.90
2955;DHT22;1487;51.470;6.938;2022-12-07T00:09:06;5.30;99.90
2955;DHT22;1487;51.470;6.938;2022-12-07T00:11:36;5.30;99.90
2955;DHT22;1487;51.470;6.938;2022-12-07T00:14:06;5.30;99.90
2955;DHT22;1487;51.470;6.938;2022-12-07T00:16:34;5.30;99.90
2955;DHT22;1487;51.470;6.938;2022-12-07T00:19:02;5.30;99.90
2955;DHT22;1487;51.470;6.938;2022-12-07T00:21:31;5.30;99.90
2955;DHT22;1487;51.470;6.938;2022-12-07T00:24:00;5.30;99.90
2955;DHT22;1487;51.470;6.938;2022-12-07T00:26:28;5.30;99.90
2955;DHT22;1487;51.470;6.938;2022-12-07T00:28:57;5.30;99.90
2955;DHT22;1487;51.470;6.938;2022-12-07T00:31:29;5.30;99.90
2955;DHT22;1487;51.470;6.938;2022-12-07T00:33:57;5.30;99.90
2955;DHT22;1487;51.470;6.938;2022-12-07T00:36:25;5.30;99.90
2955;DHT22;1487;51.470;6.938;2022-12-07T00:38:52;5.30;99.90
2955;DHT22;1487;51.470;6.938;2022-12-07T00:41:22;5.30;99.90
2955;DHT22;1487;51.470;6.938;2022-12-07T00:43:49;5.30;99.90
2955;DHT22;1487;51.470;6.938;2022-12-07T00:46:18;5.30;99.90
2955;DHT22;1487;51.470;6.938;2022-12-07T00:48:45;5.30;99.90
2955;DHT22;1487;51.470;6.938;2022-12-07T00:51:13;5.30;99.90
2955;DHT22;1487;51.470;6.938;2022-12-07T00:53:41;5.30;99.90
2955;DHT22;1487;51.470;6.938;2022-12-07T00:56:09;5.40;99.90
2955;DHT22;1487;51.470;6.938;2022-12-07T00:58:37;5.40;99.90
2955;DHT22;1487;51.470;6.938;2022-12-07T01:01:06;5.40;99.90
2955;DHT22;1487;51.470;6.938;2022-12-07T01:03:34;5.40;99.90
2955;DHT22;1487;51.470;6.938;2022-12-07T01:06:03;5.40;99.90
2955;DHT22;1487;51.470;6.938;2022-12-07T01:08:30;5.50;99.90
2955;DHT22;1487;51.470;6.938;2022-12-07T01:10:58;5.50;99.90
2955;DHT22;1487;51.470;6.938;2022-12-07T01:13:25;5.50;99.90
2955;DHT22;1487;51.470;6.938;2022-12-07T01:15:57;5.50;99.90
2955;DHT22;1487;51.470;6.938;2022-12-07T01:18:25;5.50;99.90
2955;DHT22;1487;51.470;6.938;2022-12-07T01:21:00;5.40;99.90
2955;DHT22;1487;51.470;6.938;2022-12-07T01:23:27;5.40;99.90
2955;DHT22;1487;51.470;6.938;2022-12-07T01:25:55;5.50;99.90
2955;DHT22;1487;51.470;6.938;2022-12-07T01:28:22;5.50;99.90
2955;DHT22;1487;51.470;6.938;2022-12-07T01:30:57;5.50;99.90
2955;DHT22;1487;51.470;6.938;2022-12-07T01:33:24;5.60;99.90
2955;DHT22;1487;51.470;6.938;2022-12-07T01:35:52;5.60;99.90
2955;DHT22;1487;51.470;6.938;2022-12-07T01:38:19;5.60;99.90
2955;DHT22;1487;51.470;6.938;2022-12-07T01:40:53;5.60;99.90
2955;DHT22;1487;51.470;6.938;2022-12-07T01:43:21;5.60;99.90
2955;DHT22;1487;51.470;6.938;2022-12-07T01:45:49;5.60;99.90
2955;DHT22;1487;51.470;6.938;2022-12-07T01:48:20;5.60;99.90
2955;DHT22;1487;51.470;6.938;2022-12-07T01:50:50;5.50;99.90
2955;DHT22;1487;51.470;6.938;2022-12-07T01:53:18;5.50;99.90
2955;DHT22;1487;51.470;6.938;2022-12-07T01:55:47;5.50;99.90
2955;DHT22;1487;51.470;6.938;2022-12-07T01:58:16;5.50;99.90
2955;DHT22;1487;51.470;6.938;2022-12-07T02:00:43;5.50;99.90
2955;DHT22;1487;51.470;6.938;2022-12-07T02:03:13;5.50;99.90
2955;DHT22;1487;51.470;6.938;2022-12-07T02:05:43;5.40;99.90
2955;DHT22;1487;51.470;6.938;2022-12-07T02:08:12;5.40;99.90
2955;DHT22;1487;51.470;6.938;2022-12-07T02:10:39;5.30;99.90
2955;DHT22;1487;51.470;6.938;2022-12-07T02:13:09;5.30;99.90
2955;DHT22;1487;51.470;6.938;2022-12-07T02:15:45;5.30;99.90
2955;DHT22;1487;51.470;6.938;2022-12-07T02:18:22;5.30;99.90
2955;DHT22;1487;51.470;6.938;2022-12-07T02:20:56;5.20;99.90
2955;DHT22;1487;51.470;6.938;2022-12-07T02:24:03;5.20;99.90
2955;DHT22;1487;51.470;6.938;2022-12-07T02:29:39;5.10;99.90
2955;DHT22;1487;51.470;6.938;2022-12-07T02:32:11;5.10;99.90
2955;DHT22;1487;51.470;6.938;2022-12-07T02:34:46;5.10;99.90
2955;DHT22;1487;51.470;6.938;2022-12-07T02:37:25;5.10;99.90
2955;DHT22;1487;51.470;6.938;2022-12-07T02:39:57;5.10;99.90
2955;DHT22;1487;51.470;6.938;2022-12-07T02:42:30;5.10;99.90
2955;DHT22;1487;51.470;6.938;2022-12-07T02:45:00;5.10;99.90
2955;DHT22;1487;51.470;6.938;2022-12-07T02:47:28;5.00;99.90
2955;DHT22;1487;51.470;6.938;2022-12-07T02:49:56;5.00;99.90
2955;DHT22;1487;51.470;6.938;2022-12-07T02:52:23;5.00;99.90
2955;DHT22;1487;51.470;6.938;2022-12-07T02:54:49;5.00;99.90
2955;DHT22;1487;51.470;6.938;2022-12-07T02:57:38;4.90;99.90
2955;DHT22;1487;51.470;6.938;2022-12-07T03:00:12;4.90;99.90
2955;DHT22;1487;51.470;6.938;2022-12-07T03:02:48;4.80;99.90
2955;DHT22;1487;51.470;6.938;2022-12-07T03:05:31;4.70;99.90
2955;DHT22;1487;51.470;6.938;2022-12-07T03:08:01;4.70;99.90
2955;DHT22;1487;51.470;6.938;2022-12-07T03:10:35;4.70;99.90
2955;DHT22;1487;51.470;6.938;2022-12-07T03:13:12;4.60;99.90
2955;DHT22;1487;51.470;6.938;2022-12-07T03:15:49;4.60;99.90
2955;DHT22;1487;51.470;6.938;2022-12-07T03:18:21;4.50;99.90
2955;DHT22;1487;51.470;6.938;2022-12-07T03:20:51;4.40;99.90
2955;DHT22;1487;51.470;6.938;2022-12-07T03:23:21;4.40;99.90
2955;DHT22;1487;51.470;6.938;2022-12-07T03:25:52;4.40;99.90
2955;DHT22;1487;51.470;6.938;2022-12-07T03:28:23;4.30;99.90
2955;DHT22;1487;51.470;6.938;2022-12-07T03:30:55;4.30;99.90
2955;DHT22;1487;51.470;6.938;2022-12-07T03:33:26;4.20;99.90
2955;DHT22;1487;51.470;6.938;2022-12-07T03:36:01;4.20;99.90
2955;DHT22;1487;51.470;6.938;2022-12-07T03:38:32;4.20;99.90
2955;DHT22;1487;51.470;6.938;2022-12-07T03:41:07;4.10;99.90
2955;DHT22;1487;51.470;6.938;2022-12-07T03:43:36;4.10;99.90
2955;DHT22;1487;51.470;6.938;2022-12-07T03:46:17;4.00;99.90
2955;DHT22;1487;51.470;6.938;2022-12-07T03:48:54;4.00;99.90
2955;DHT22;1487;51.470;6.938;2022-12-07T03:51:25;3.90;99.90
2955;DHT22;1487;51.470;6.938;2022-12-07T03:53:59;3.90;99.90
2955;DHT22;1487;51.470;6.938;2022-12-07T03:56:28;4.00;99.90
2955;DHT22;1487;51.470;6.938;2022-12-07T03:58:56;4.10;99.90
2955;DHT22;1487;51.470;6.938;2022-12-07T04:01:24;4.10;99.90
2955;DHT22;1487;51.470;6.938;2022-12-07T04:03:51;4.20;99.90
2955;DHT22;1487;51.470;6.938;2022-12-07T04:06:18;4.20;99.90
2955;DHT22;1487;51.470;6.938;2022-12-07T04:08:45;4.30;99.90
2955;DHT22;1487;51.470;6.938;2022-12-07T04:11:12;4.30;99.90
2955;DHT22;1487;51.470;6.938;2022-12-07T04:13:38;4.20;99.90
2955;DHT22;1487;51.470;6.938;2022-12-07T04:16:19;4.20;99.90
2955;DHT22;1487;51.470;6.938;2022-12-07T04:18:47;4.20;99.90
2955;DHT22;1487;51.470;6.938;2022-12-07T04:21:14;4.20;99.90
2955;DHT22;1487;51.470;6.938;2022-12-07T04:23:41;4.10;99.90
2955;DHT22;1487;51.470;6.938;2022-12-07T04:26:08;4.10;99.90
2955;DHT22;1487;51.470;6.938;2022-12-07T04:28:34;4.10;99.90
2955;DHT22;1487;51.470;6.938;2022-12-07T04:31:01;4.10;99.90
2955;DHT22;1487;51.470;6.938;2022-12-07T04:33:28;4.00;99.90
2955;DHT22;1487;51.470;6.938;2022-12-07T04:35:56;3.90;99.90
2955;DHT22;1487;51.470;6.938;2022-12-07T04:38:23;3.90;99.90
2955;DHT22;1487;51.470;6.938;2022-12-07T04:40:50;3.80;99.90
2955;DHT22;1487;51.470;6.938;2022-12-07T04:43:16;3.80;99.90
2955;DHT22;1487;51.470;6.938;2022-12-07T04:45:46;3.70;99.90
2955;DHT22;1487;51.470;6.938;2022-12-07T04:48:13;3.60;99.90
2955;DHT22;1487;51.470;6.938;2022-12-07T04:50:40;3.70;99.90
2955;DHT22;1487;51.470;6.938;2022-12-07T04:53:08;3.60;99.90
2955;DHT22;1487;51.470;6.938;2022-12-07T04:55:36;3.60;99.90
2955;DHT22;1487;51.470;6.938;2022-12-07T04:58:03;3.60;99.90
2955;DHT22;1487;51.470;6.938;2022-12-07T05:00:29;3.60;99.90
2955;DHT22;1487;51.470;6.938;2022-12-07T05:02:56;3.60;99.90
2955;DHT22;1487;51.470;6.938;2022-12-07T05:05:23;3.60;99.90
2955;DHT22;1487;51.470;6.938;2022-12-07T05:07:50;3.60;99.90
2955;DHT22;1487;51.470;6.938;2022-12-07T05:10:18;3.60;99.90
2955;DHT22;1487;51.470;6.938;2022-12-07T05:12:45;3.70;99.90
2955;DHT22;1487;51.470;6.938;2022-12-07T05:15:13;3.70;99.90
2955;DHT22;1487;51.470;6.938;2022-12-07T05:17:40;3.70;99.90
2955;DHT22;1487;51.470;6.938;2022-12-07T05:20:08;3.80;99.90
2955;DHT22;1487;51.470;6.938;2022-12-07T05:22:35;3.80;99.90
2955;DHT22;1487;51.470;6.938;2022-12-07T05:25:02;3.80;99.90
2955;DHT22;1487;51.470;6.938;2022-12-07T05:27:30;3.80;99.90
2955;DHT22;1487;51.470;6.938;2022-12-07T05:29:57;3.80;99.90
2955;DHT22;1487;51.470;6.938;2022-12-07T05:32:23;3.90;99.90
2955;DHT22;1487;51.470;6.938;2022-12-07T05:34:50;3.90;99.90
2955;DHT22;1487;51.470;6.938;2022-12-07T05:37:20;3.90;99.90
2955;DHT22;1487;51.470;6.938;2022-12-07T05:39:47;3.90;99.90
2955;DHT22;1487;51.470;6.938;2022-12-07T05:42:13;4.00;99.90
2955;DHT22;1487;51.470;6.938;2022-12-07T05:44:42;4.00;99.90
2955;DHT22;1487;51.470;6.938;2022-12-07T05:47:09;4.00;99.90
2955;DHT22;1487;51.470;6.938;2022-12-07T05:49:36;4.00;99.90
2955;DHT22;1487;51.470;6.938;2022-12-07T05:52:03;4.00;99.90
2955;DHT22;1487;51.470;6.938;2022-12-07T05:54:30;4.00;99.90
2955;DHT22;1487;51.470;6.938;2022-12-07T05:56:56;4.00;99.90
2955;DHT22;1487;51.470;6.938;2022-12-07T05:59:24;4.00;99.90
2955;DHT22;1487;51.470;6.938;2022-12-07T06:01:52;4.00;99.90
2955;DHT22;1487;51.470;6.938;2022-12-07T06:04:20;4.00;99.90
2955;DHT22;1487;51.470;6.938;2022-12-07T06:06:47;4.00;99.90
2955;DHT22;1487;51.470;6.938;2022-12-07T06:09:14;4.00;99.90
2955;DHT22;1487;51.470;6.938;2022-12-07T06:11:41;4.00;99.90
2955;DHT22;1487;51.470;6.938;2022-12-07T06:14:25;4.00;99.90
2955;DHT22;1487;51.470;6.938;2022-12-07T06:16:54;4.00;99.90
2955;DHT22;1487;51.470;6.938;2022-12-07T06:19:20;3.90;99.90
2955;DHT22;1487;51.470;6.938;2022-12-07T06:21:47;3.80;99.90
2955;DHT22;1487;51.470;6.938;2022-12-07T06:24:15;3.90;99.90
2955;DHT22;1487;51.470;6.938;2022-12-07T06:26:43;3.80;99.90
2955;DHT22;1487;51.470;6.938;2022-12-07T06:29:10;3.90;99.90
2955;DHT22;1487;51.470;6.938;2022-12-07T06:31:37;3.90;99.90
2955;DHT22;1487;51.470;6.938;2022-12-07T06:34:08;3.90;99.90
2955;DHT22;1487;51.470;6.938;2022-12-07T06:36:35;3.90;99.90
2955;DHT22;1487;51.470;6.938;2022-12-07T06:39:03;4.00;99.90
2955;DHT22;1487;51.470;6.938;2022-12-07T06:41:30;4.00;99.90
2955;DHT22;1487;51.470;6.938;2022-12-07T06:43:57;4.00;99.90
2955;DHT22;1487;51.470;6.938;2022-12-07T06:46:24;4.10;99.90
2955;DHT22;1487;51.470;6.938;2022-12-07T06:48:51;4.10;99.90
2955;DHT22;1487;51.470;6.938;2022-12-07T06:51:19;4.10;99.90
2955;DHT22;1487;51.470;6.938;2022-12-07T06:53:47;4.10;99.90
2955;DHT22;1487;51.470;6.938;2022-12-07T06:56:14;4.10;99.90
2955;DHT22;1487;51.470;6.938;2022-12-07T06:58:41;4.10;99.90
2955;DHT22;1487;51.470;6.938;2022-12-07T07:01:09;4.00;99.90
2955;DHT22;1487;51.470;6.938;2022-12-07T07:03:36;4.00;99.90
2955;DHT22;1487;51.470;6.938;2022-12-07T07:06:03;3.90;99.90
2955;DHT22;1487;51.470;6.938;2022-12-07T07:08:32;3.90;99.90
2955;DHT22;1487;51.470;6.938;2022-12-07T07:10:59;3.90;99.90
2955;DHT22;1487;51.470;6.938;2022-12-07T07:13:26;3.90;99.90
2955;DHT22;1487;51.470;6.938;2022-12-07T07:15:53;3.90;99.90
2955;DHT22;1487;51.470;6.938;2022-12-07T07:18:20;3.90;99.90
2955;DHT22;1487;51.470;6.938;2022-12-07T07:20:47;3.90;99.90
2955;DHT22;1487;51.470;6.938;2022-12-07T07:23:14;4.00;99.90
2955;DHT22;1487;51.470;6.938;2022-12-07T07:25:42;3.90;99.90
2955;DHT22;1487;51.470;6.938;2022-12-07T07:28:09;3.90;99.90
2955;DHT22;1487;51.470;6.938;2022-12-07T07:30:36;3.90;99.90
2955;DHT22;1487;51.470;6.938;2022-12-07T07:33:04;3.90;99.90
2955;DHT22;1487;51.470;6.938;2022-12-07T07:35:32;3.90;99.90
2955;DHT22;1487;51.470;6.938;2022-12-07T07:37:59;3.90;99.90
2955;DHT22;1487;51.470;6.938;2022-12-07T07:40:27;3.90;99.90
2955;DHT22;1487;51.470;6.938;2022-12-07T07:42:56;4.00;99.90
2955;DHT22;1487;51.470;6.938;2022-12-07T07:45:24;4.00;99.90
2955;DHT22;1487;51.470;6.938;2022-12-07T07:47:51;4.00;99.90
2955;DHT22;1487;51.470;6.938;2022-12-07T07:50:18;4.10;99.90
2955;DHT22;1487;51.470;6.938;2022-12-07T07:52:45;4.10;99.90
2955;DHT22;1487;51.470;6.938;2022-12-07T07:55:13;4.10;99.90
2955;DHT22;1487;51.470;6.938;2022-12-07T07:57:41;4.10;99.90
2955;DHT22;1487;51.470;6.938;2022-12-07T08:00:11;4.20;99.90
2955;DHT22;1487;51.470;6.938;2022-12-07T08:02:39;4.20;99.90
2955;DHT22;1487;51.470;6.938;2022-12-07T08:05:07;4.30;99.90
2955;DHT22;1487;51.470;6.938;2022-12-07T08:07:34;4.40;99.90
2955;DHT22;1487;51.470;6.938;2022-12-07T08:10:01;4.40;99.90
2955;DHT22;1487;51.470;6.938;2022-12-07T08:12:27;4.40;99.90
2955;DHT22;1487;51.470;6.938;2022-12-07T08:14:54;4.50;99.90
2955;DHT22;1487;51.470;6.938;2022-12-07T08:17:23;4.60;99.90
2955;DHT22;1487;51.470;6.938;2022-12-07T08:19:49;4.70;99.90
2955;DHT22;1487;51.470;6.938;2022-12-07T08:22:16;4.70;99.90
2955;DHT22;1487;51.470;6.938;2022-12-07T08:24:44;4.70;99.90
2955;DHT22;1487;51.470;6.938;2022-12-07T08:27:11;4.70;99.90
2955;DHT22;1487;51.470;6.938;2022-12-07T08:29:38;4.70;99.90
2955;DHT22;1487;51.470;6.938;2022-12-07T08:32:04;4.70;99.90
2955;DHT22;1487;51.470;6.938;2022-12-07T08:34:33;4.70;99.90
2955;DHT22;1487;51.470;6.938;2022-12-07T08:37:00;4.70;99.90
2955;DHT22;1487;51.470;6.938;2022-12-07T08:39:27;4.70;99.90
2955;DHT22;1487;51.470;6.938;2022-12-07T08:41:53;4.70;99.90
2955;DHT22;1487;51.470;6.938;2022-12-07T08:44:21;4.70;99.90
2955;DHT22;1487;51.470;6.938;2022-12-07T08:46:50;4.70;99.90
2955;DHT22;1487;51.470;6.938;2022-12-07T08:49:21;4.60;99.90
2955;DHT22;1487;51.470;6.938;2022-12-07T08:51:51;4.60;99.90
2955;DHT22;1487;51.470;6.938;2022-12-07T08:54:18;4.50;99.90
2955;DHT22;1487;51.470;6.938;2022-12-07T08:56:47;4.50;99.90
2955;DHT22;1487;51.470;6.938;2022-12-07T08:59:16;4.60;99.90
2955;DHT22;1487;51.470;6.938;2022-12-07T09:01:43;4.80;99.90
2955;DHT22;1487;51.470;6.938;2022-12-07T09:04:10;4.90;99.90
2955;DHT22;1487;51.470;6.938;2022-12-07T09:06:38;5.00;99.90
2955;DHT22;1487;51.470;6.938;2022-12-07T09:09:06;5.00;99.90
2955;DHT22;1487;51.470;6.938;2022-12-07T09:11:35;5.10;99.90
2955;DHT22;1487;51.470;6.938;2022-12-07T09:14:01;5.10;99.90
2955;DHT22;1487;51.470;6.938;2022-12-07T09:16:28;5.00;99.90
2955;DHT22;1487;51.470;6.938;2022-12-07T09:18:55;5.10;99.90
2955;DHT22;1487;51.470;6.938;2022-12-07T09:21:22;5.30;99.90
2955;DHT22;1487;51.470;6.938;2022-12-07T09:23:49;5.60;99.90
2955;DHT22;1487;51.470;6.938;2022-12-07T09:26:17;5.80;99.90
2955;DHT22;1487;51.470;6.938;2022-12-07T09:28:44;5.90;99.90
2955;DHT22;1487;51.470;6.938;2022-12-07T09:31:11;6.00;99.90
2955;DHT22;1487;51.470;6.938;2022-12-07T09:33:37;6.00;99.90
2955;DHT22;1487;51.470;6.938;2022-12-07T09:36:05;6.10;99.90
2955;DHT22;1487;51.470;6.938;2022-12-07T09:38:31;6.10;99.90
2955;DHT22;1487;51.470;6.938;2022-12-07T09:41:04;6.10;99.90
2955;DHT22;1487;51.470;6.938;2022-12-07T09:43:35;6.20;99.90
2955;DHT22;1487;51.470;6.938;2022-12-07T09:46:02;6.30;99.90
2955;DHT22;1487;51.470;6.938;2022-12-07T09:48:31;6.20;99.90
2955;DHT22;1487;51.470;6.938;2022-12-07T09:51:00;6.20;99.90
2955;DHT22;1487;51.470;6.938;2022-12-07T09:53:28;6.20;99.90
2955;DHT22;1487;51.470;6.938;2022-12-07T09:55:56;6.30;99.90
2955;DHT22;1487;51.470;6.938;2022-12-07T09:58:25;6.30;99.90
2955;DHT22;1487;51.470;6.938;2022-12-07T10:00:56;6.30;99.90
2955;DHT22;1487;51.470;6.938;2022-12-07T10:03:26;6.30;99.90
2955;DHT22;1487;51.470;6.938;2022-12-07T10:05:54;6.30;99.90
2955;DHT22;1487;51.470;6.938;2022-12-07T10:08:21;6.20;99.90
2955;DHT22;1487;51.470;6.938;2022-12-07T10:10:51;6.20;99.90
2955;DHT22;1487;51.470;6.938;2022-12-07T10:13:20;6.20;99.90
2955;DHT22;1487;51.470;6.938;2022-12-07T10:15:50;6.50;99.90
2955;DHT22;1487;51.470;6.938;2022-12-07T10:18:30;6.80;99.90
2955;DHT22;1487;51.470;6.938;2022-12-07T10:21:12;7.20;99.90
2955;DHT22;1487;51.470;6.938;2022-12-07T10:23:40;7.40;99.90
2955;DHT22;1487;51.470;6.938;2022-12-07T10:26:31;7.60;99.90
2955;DHT22;1487;51.470;6.938;2022-12-07T10:29:00;7.60;99.90
2955;DHT22;1487;51.470;6.938;2022-12-07T10:31:28;7.70;99.90
2955;DHT22;1487;51.470;6.938;2022-12-07T10:33:58;7.80;99.90
2955;DHT22;1487;51.470;6.938;2022-12-07T10:36:29;8.00;99.90
2955;DHT22;1487;51.470;6.938;2022-12-07T10:39:02;8.10;99.90
2955;DHT22;1487;51.470;6.938;2022-12-07T10:41:29;8.40;99.90
2955;DHT22;1487;51.470;6.938;2022-12-07T10:43:57;8.70;99.90
2955;DHT22;1487;51.470;6.938;2022-12-07T10:46:39;8.70;99.90
2955;DHT22;1487;51.470;6.938;2022-12-07T10:49:29;8.70;99.90
2955;DHT22;1487;51.470;6.938;2022-12-07T10:52:01;8.60;99.90
2955;DHT22;1487;51.470;6.938;2022-12-07T10:54:40;8.30;99.90
2955;DHT22;1487;51.470;6.938;2022-12-07T10:57:22;8.10;99.90
2955;DHT22;1487;51.470;6.938;2022-12-07T11:00:02;7.90;99.90
2955;DHT22;1487;51.470;6.938;2022-12-07T11:02:37;7.90;99.90
2955;DHT22;1487;51.470;6.938;2022-12-07T11:05:17;7.80;99.90
2955;DHT22;1487;51.470;6.938;2022-12-07T11:07:55;7.80;99.90
2955;DHT22;1487;51.470;6.938;2022-12-07T11:10:27;7.80;99.90
2955;DHT22;1487;51.470;6.938;2022-12-07T11:13:17;7.70;99.90
2955;DHT22;1487;51.470;6.938;2022-12-07T11:16:14;7.70;99.90
2955;DHT22;1487;51.470;6.938;2022-12-07T11:18:50;7.70;99.90
2955;DHT22;1487;51.470;6.938;2022-12-07T11:21:25;7.50;99.90
2955;DHT22;1487;51.470;6.938;2022-12-07T11:23:59;7.40;99.90
2955;DHT22;1487;51.470;6.938;2022-12-07T11:26:41;7.30;99.90
2955;DHT22;1487;51.470;6.938;2022-12-07T11:29:21;7.30;99.90
2955;DHT22;1487;51.470;6.938;2022-12-07T11:32:01;7.20;99.90
2955;DHT22;1487;51.470;6.938;2022-12-07T11:34:38;7.00;99.90
2955;DHT22;1487;51.470;6.938;2022-12-07T11:37:11;7.00;99.90
2955;DHT22;1487;51.470;6.938;2022-12-07T11:39:44;7.10;99.90
2955;DHT22;1487;51.470;6.938;2022-12-07T11:42:16;7.10;99.90
2955;DHT22;1487;51.470;6.938;2022-12-07T11:44:50;7.30;99.90
2955;DHT22;1487;51.470;6.938;2022-12-07T11:47:25;7.50;99.90
2955;DHT22;1487;51.470;6.938;2022-12-07T11:49:55;7.70;99.90
2955;DHT22;1487;51.470;6.938;2022-12-07T11:52:32;7.70;99.90
2955;DHT22;1487;51.470;6.938;2022-12-07T11:55:05;7.70;99.90
2955;DHT22;1487;51.470;6.938;2022-12-07T11:57:43;7.80;99.90
2955;DHT22;1487;51.470;6.938;2022-12-07T12:00:14;7.80;99.90
2955;DHT22;1487;51.470;6.938;2022-12-07T12:02:46;7.70;99.90
2955;DHT22;1487;51.470;6.938;2022-12-07T12:05:17;7.70;99.90
2955;DHT22;1487;51.470;6.938;2022-12-07T12:07:52;7.80;99.90
2955;DHT22;1487;51.470;6.938;2022-12-07T12:10:24;7.80;99.90
2955;DHT22;1487;51.470;6.938;2022-12-07T12:13:17;7.70;99.90
2955;DHT22;1487;51.470;6.938;2022-12-07T12:16:10;7.60;99.90
2955;DHT22;1487;51.470;6.938;2022-12-07T12:18:53;7.50;99.90
2955;DHT22;1487;51.470;6.938;2022-12-07T12:21:26;7.50;99.90
2955;DHT22;1487;51.470;6.938;2022-12-07T12:23:59;7.50;99.90
2955;DHT22;1487;51.470;6.938;2022-12-07T12:26:29;7.50;99.90
2955;DHT22;1487;51.470;6.938;2022-12-07T12:28:58;7.40;99.90
2955;DHT22;1487;51.470;6.938;2022-12-07T12:31:36;7.40;99.90
2955;DHT22;1487;51.470;6.938;2022-12-07T12:34:32;7.30;99.90
2955;DHT22;1487;51.470;6.938;2022-12-07T12:37:01;7.30;99.90
2955;DHT22;1487;51.470;6.938;2022-12-07T12:39:29;7.20;99.90
2955;DHT22;1487;51.470;6.938;2022-12-07T12:41:57;7.20;99.90
2955;DHT22;1487;51.470;6.938;2022-12-07T12:44:41;7.20;99.90
2955;DHT22;1487;51.470;6.938;2022-12-07T12:50:16;7.30;99.90
2955;DHT22;1487;51.470;6.938;2022-12-07T12:56:05;7.40;99.90
2955;DHT22;1487;51.470;6.938;2022-12-07T12:58:39;7.40;99.90
2955;DHT22;1487;51.470;6.938;2022-12-07T13:01:38;7.30;99.90
2955;DHT22;1487;51.470;6.938;2022-12-07T13:04:23;7.30;99.90
2955;DHT22;1487;51.470;6.938;2022-12-07T13:06:50;7.20;99.90
2955;DHT22;1487;51.470;6.938;2022-12-07T13:09:23;7.20;99.90
2955;DHT22;1487;51.470;6.938;2022-12-07T13:11:59;7.10;99.90
2955;DHT22;1487;51.470;6.938;2022-12-07T13:14:54;7.10;99.90
2955;DHT22;1487;51.470;6.938;2022-12-07T13:17:59;7.10;99.90
2955;DHT22;1487;51.470;6.938;2022-12-07T13:20:49;7.10;99.90
2955;DHT22;1487;51.470;6.938;2022-12-07T13:23:33;7.20;99.90
2955;DHT22;1487;51.470;6.938;2022-12-07T13:26:15;7.10;99.90
2955;DHT22;1487;51.470;6.938;2022-12-07T13:28:46;7.10;99.90
2955;DHT22;1487;51.470;6.938;2022-12-07T13:31:30;7.10;99.90
2955;DHT22;1487;51.470;6.938;2022-12-07T13:33:59;7.00;99.90
2955;DHT22;1487;51.470;6.938;2022-12-07T13:36:27;6.90;99.90
2955;DHT22;1487;51.470;6.938;2022-12-07T13:38:58;6.80;99.90
2955;DHT22;1487;51.470;6.938;2022-12-07T13:41:26;6.70;99.90
2955;DHT22;1487;51.470;6.938;2022-12-07T13:44:02;6.70;99.90
2955;DHT22;1487;51.470;6.938;2022-12-07T13:46:43;6.60;99.90
2955;DHT22;1487;51.470;6.938;2022-12-07T13:49:19;6.50;99.90
2955;DHT22;1487;51.470;6.938;2022-12-07T13:51:47;6.40;99.90
2955;DHT22;1487;51.470;6.938;2022-12-07T13:54:14;6.40;99.90
2955;DHT22;1487;51.470;6.938;2022-12-07T13:56:42;6.40;99.90
2955;DHT22;1487;51.470;6.938;2022-12-07T13:59:14;6.30;99.90
2955;DHT22;1487;51.470;6.938;2022-12-07T14:01:41;6.20;99.90
2955;DHT22;1487;51.470;6.938;2022-12-07T14:04:29;6.20;99.90
2955;DHT22;1487;51.470;6.938;2022-12-07T14:06:57;6.20;99.90
2955;DHT22;1487;51.470;6.938;2022-12-07T14:09:26;6.10;99.90
2955;DHT22;1487;51.470;6.938;2022-12-07T14:11:55;6.10;99.90
2955;DHT22;1487;51.470;6.938;2022-12-07T14:14:26;6.10;99.90
2955;DHT22;1487;51.470;6.938;2022-12-07T14:16:59;6.00;99.90
2955;DHT22;1487;51.470;6.938;2022-12-07T14:19:42;6.00;99.90
2955;DHT22;1487;51.470;6.938;2022-12-07T14:22:25;6.00;99.90
2955;DHT22;1487;51.470;6.938;2022-12-07T14:25:14;6.00;99.90
2955;DHT22;1487;51.470;6.938;2022-12-07T14:27:49;6.00;99.90
2955;DHT22;1487;51.470;6.938;2022-12-07T14:30:18;6.00;99.90
2955;DHT22;1487;51.470;6.938;2022-12-07T14:32:48;5.90;99.90
2955;DHT22;1487;51.470;6.938;2022-12-07T14:35:18;5.90;99.90
2955;DHT22;1487;51.470;6.938;2022-12-07T14:37:47;5.90;99.90
2955;DHT22;1487;51.470;6.938;2022-12-07T14:40:15;5.80;99.90
2955;DHT22;1487;51.470;6.938;2022-12-07T14:42:43;5.70;99.90
2955;DHT22;1487;51.470;6.938;2022-12-07T14:45:14;5.70;99.90
2955;DHT22;1487;51.470;6.938;2022-12-07T14:47:43;5.50;99.90
2955;DHT22;1487;51.470;6.938;2022-12-07T14:50:12;5.40;99.90
2955;DHT22;1487;51.470;6.938;2022-12-07T14:52:40;5.30;99.90
2955;DHT22;1487;51.470;6.938;2022-12-07T14:55:14;5.30;99.90
2955;DHT22;1487;51.470;6.938;2022-12-07T14:57:41;5.20;99.90
2955;DHT22;1487;51.470;6.938;2022-12-07T15:00:13;5.10;99.90
2955;DHT22;1487;51.470;6.938;2022-12-07T15:02:40;5.10;99.90
2955;DHT22;1487;51.470;6.938;2022-12-07T15:05:09;5.00;99.90
2955;DHT22;1487;51.470;6.938;2022-12-07T15:07:36;5.00;99.90
2955;DHT22;1487;51.470;6.938;2022-12-07T15:10:04;4.90;99.90
2955;DHT22;1487;51.470;6.938;2022-12-07T15:12:31;4.90;99.90
2955;DHT22;1487;51.470;6.938;2022-12-07T15:14:58;4.80;99.90
2955;DHT22;1487;51.470;6.938;2022-12-07T15:17:27;4.70;99.90
2955;DHT22;1487;51.470;6.938;2022-12-07T15:19:53;4.60;99.90
2955;DHT22;1487;51.470;6.938;2022-12-07T15:22:22;4.60;99.90
2955;DHT22;1487;51.470;6.938;2022-12-07T15:24:48;4.50;99.90
2955;DHT22;1487;51.470;6.938;2022-12-07T15:27:15;4.50;99.90
2955;DHT22;1487;51.470;6.938;2022-12-07T15:29:42;4.50;99.90
2955;DHT22;1487;51.470;6.938;2022-12-07T15:32:09;4.50;99.90
2955;DHT22;1487;51.470;6.938;2022-12-07T15:34:36;4.50;99.90
2955;DHT22;1487;51.470;6.938;2022-12-07T15:37:03;4.50;99.90
2955;DHT22;1487;51.470;6.938;2022-12-07T15:39:31;4.50;99.90
2955;DHT22;1487;51.470;6.938;2022-12-07T15:41:58;4.50;99.90
2955;DHT22;1487;51.470;6.938;2022-12-07T15:44:25;4.50;99.90
2955;DHT22;1487;51.470;6.938;2022-12-07T15:47:09;4.50;99.90
2955;DHT22;1487;51.470;6.938;2022-12-07T15:49:36;4.50;99.90
2955;DHT22;1487;51.470;6.938;2022-12-07T15:52:03;4.50;99.90
2955;DHT22;1487;51.470;6.938;2022-12-07T15:54:32;4.50;99.90
2955;DHT22;1487;51.470;6.938;2022-12-07T15:56:59;4.50;99.90
2955;DHT22;1487;51.470;6.938;2022-12-07T15:59:26;4.50;99.90
2955;DHT22;1487;51.470;6.938;2022-12-07T16:01:54;4.50;99.90
2955;DHT22;1487;51.470;6.938;2022-12-07T16:04:21;4.60;99.90
2955;DHT22;1487;51.470;6.938;2022-12-07T16:06:47;4.60;99.90
2955;DHT22;1487;51.470;6.938;2022-12-07T16:09:15;4.60;99.90
2955;DHT22;1487;51.470;6.938;2022-12-07T16:11:44;4.70;99.90
2955;DHT22;1487;51.470;6.938;2022-12-07T16:14:11;4.70;99.90
2955;DHT22;1487;51.470;6.938;2022-12-07T16:16:37;4.70;99.90
2955;DHT22;1487;51.470;6.938;2022-12-07T16:19:05;4.80;99.90
2955;DHT22;1487;51.470;6.938;2022-12-07T16:21:33;4.90;99.90
2955;DHT22;1487;51.470;6.938;2022-12-07T16:24:01;4.90;99.90
2955;DHT22;1487;51.470;6.938;2022-12-07T16:26:28;4.90;99.90
2955;DHT22;1487;51.470;6.938;2022-12-07T16:28:56;4.80;99.90
2955;DHT22;1487;51.470;6.938;2022-12-07T16:31:24;4.90;99.90
2955;DHT22;1487;51.470;6.938;2022-12-07T16:33:54;4.90;99.90
2955;DHT22;1487;51.470;6.938;2022-12-07T16:36:22;4.90;99.90
2955;DHT22;1487;51.470;6.938;2022-12-07T16:38:50;5.00;99.90
2955;DHT22;1487;51.470;6.938;2022-12-07T16:41:17;5.00;99.90
2955;DHT22;1487;51.470;6.938;2022-12-07T16:43:44;5.00;99.90
2955;DHT22;1487;51.470;6.938;2022-12-07T16:46:12;5.00;99.90
2955;DHT22;1487;51.470;6.938;2022-12-07T16:48:40;5.10;99.90